KLM94K LHBP-EHAM
Flight info
| Callsign | KLM94K |
|---|---|
| Flight time | N/A |
| Altitude | 36000 |
| Route | GILEP DCT ZOLKU DCT BEGLA DCT DITIS DCT VARIK DCT KATCE DCT NORKU |
| Aircraft | B738/M-SDE2E3FGHIRWXY/LB1 |
Departure
| Time | N/A |
|---|---|
| Airport | Budapest Liszt Ferenc International Airport (LHBP) |
Arrival
| Time | 2026-04-30 19:29 |
|---|---|
| Airport | Amsterdam Airport Schiphol (EHAM) |
| Time | Latitude | Longitude | Altitude | Speed | Heading |
|---|---|---|---|---|---|
| 2026-04-30 18:00 | 47.97094 | 16.86008 | 33173 ft | 448 kts | 315° |
| 2026-04-30 18:00 | 48.03005 | 16.75237 | 34061 ft | 446 kts | 316° |
| 2026-04-30 18:01 | 48.06902 | 16.68096 | 34592 ft | 445 kts | 315° |
| 2026-04-30 18:02 | 48.12767 | 16.57316 | 35223 ft | 446 kts | 315° |
| 2026-04-30 18:02 | 48.18627 | 16.46505 | 35846 ft | 445 kts | 315° |
| 2026-04-30 18:03 | 48.24474 | 16.35675 | 36441 ft | 445 kts | 315° |
| 2026-04-30 18:04 | 48.30302 | 16.24837 | 37016 ft | 445 kts | 315° |
| 2026-04-30 18:05 | 48.38023 | 16.10410 | 37747 ft | 444 kts | 314° |
| 2026-04-30 18:06 | 48.45741 | 15.95911 | 38359 ft | 444 kts | 314° |
| 2026-04-30 18:08 | 48.59204 | 15.70425 | 38375 ft | 440 kts | 314° |
| 2026-04-30 18:10 | 48.74339 | 15.41492 | 38388 ft | 439 kts | 314° |
| 2026-04-30 18:11 | 48.87587 | 15.15904 | 38389 ft | 444 kts | 314° |
| 2026-04-30 18:13 | 48.97286 | 14.97555 | 38398 ft | 444 kts | 316° |
| 2026-04-30 18:14 | 49.05139 | 14.82838 | 38390 ft | 443 kts | 316° |
| 2026-04-30 18:15 | 49.16662 | 14.61016 | 38398 ft | 439 kts | 316° |
| 2026-04-30 18:16 | 49.24264 | 14.46523 | 38402 ft | 435 kts | 316° |
| 2026-04-30 18:17 | 49.28041 | 14.39291 | 38403 ft | 434 kts | 316° |
| 2026-04-30 18:18 | 49.33673 | 14.28472 | 38407 ft | 432 kts | 316° |
| 2026-04-30 18:18 | 49.37415 | 14.21261 | 38397 ft | 432 kts | 316° |
| 2026-04-30 18:19 | 49.41148 | 14.14049 | 38404 ft | 431 kts | 315° |
| 2026-04-30 18:19 | 49.44876 | 14.06824 | 38411 ft | 431 kts | 315° |
| 2026-04-30 18:20 | 49.48599 | 13.99590 | 38411 ft | 431 kts | 315° |
| 2026-04-30 18:20 | 49.52318 | 13.92345 | 38410 ft | 432 kts | 315° |
| 2026-04-30 18:21 | 49.56034 | 13.85084 | 38409 ft | 432 kts | 315° |
| 2026-04-30 18:21 | 49.59726 | 13.77849 | 38415 ft | 432 kts | 315° |
| 2026-04-30 18:22 | 49.63437 | 13.70559 | 38404 ft | 433 kts | 315° |
| 2026-04-30 18:22 | 49.69000 | 13.59593 | 38407 ft | 433 kts | 315° |
| 2026-04-30 18:23 | 49.72712 | 13.52249 | 38401 ft | 433 kts | 315° |
| 2026-04-30 18:23 | 49.76416 | 13.44901 | 38406 ft | 433 kts | 315° |
| 2026-04-30 18:24 | 49.81970 | 13.33844 | 38415 ft | 434 kts | 314° |
| 2026-04-30 18:25 | 49.85665 | 13.26464 | 38406 ft | 434 kts | 314° |
| 2026-04-30 18:25 | 49.91182 | 13.15402 | 38406 ft | 434 kts | 314° |
| 2026-04-30 18:26 | 49.96708 | 13.04278 | 38413 ft | 434 kts | 314° |
| 2026-04-30 18:27 | 50.02234 | 12.93106 | 38405 ft | 434 kts | 314° |
| 2026-04-30 18:28 | 50.07740 | 12.81929 | 38402 ft | 434 kts | 314° |
| 2026-04-30 18:28 | 50.13247 | 12.70698 | 38407 ft | 434 kts | 314° |
| 2026-04-30 18:29 | 50.20575 | 12.55683 | 38414 ft | 435 kts | 314° |
| 2026-04-30 18:30 | 50.27878 | 12.40633 | 38426 ft | 434 kts | 314° |
| 2026-04-30 18:31 | 50.33370 | 12.29364 | 38413 ft | 434 kts | 314° |
| 2026-04-30 18:32 | 50.38880 | 12.18117 | 38413 ft | 434 kts | 314° |
| 2026-04-30 18:33 | 50.44376 | 12.06829 | 38409 ft | 434 kts | 314° |
| 2026-04-30 18:33 | 50.49860 | 11.95506 | 38411 ft | 434 kts | 314° |
| 2026-04-30 18:34 | 50.55332 | 11.84160 | 38426 ft | 434 kts | 313° |
| 2026-04-30 18:35 | 50.58975 | 11.76580 | 38417 ft | 434 kts | 313° |
| 2026-04-30 18:35 | 50.62611 | 11.68993 | 38427 ft | 434 kts | 313° |
| 2026-04-30 18:36 | 50.68059 | 11.57582 | 38437 ft | 434 kts | 313° |
| 2026-04-30 18:37 | 50.73495 | 11.46145 | 38439 ft | 434 kts | 313° |
| 2026-04-30 18:37 | 50.77113 | 11.38505 | 38432 ft | 434 kts | 313° |
| 2026-04-30 18:38 | 50.80702 | 11.30906 | 38435 ft | 434 kts | 313° |
| 2026-04-30 18:38 | 50.84336 | 11.23187 | 38432 ft | 434 kts | 313° |
| 2026-04-30 18:39 | 50.87917 | 11.15561 | 38428 ft | 435 kts | 312° |
| 2026-04-30 18:39 | 50.91520 | 11.07863 | 38427 ft | 435 kts | 312° |
| 2026-04-30 18:40 | 50.95120 | 11.00148 | 38428 ft | 435 kts | 312° |
| 2026-04-30 18:40 | 50.98104 | 10.93736 | 38420 ft | 435 kts | 312° |
| 2026-04-30 18:41 | 51.01696 | 10.85998 | 38426 ft | 435 kts | 312° |
| 2026-04-30 18:41 | 51.05283 | 10.78248 | 38433 ft | 436 kts | 311° |
| 2026-04-30 18:42 | 51.08894 | 10.70423 | 38426 ft | 436 kts | 311° |
| 2026-04-30 18:42 | 51.14247 | 10.58777 | 38426 ft | 436 kts | 311° |
| 2026-04-30 18:45 | 51.30470 | 10.17658 | 38426 ft | 444 kts | 300° |
| 2026-04-30 18:45 | 51.31795 | 10.13201 | 38422 ft | 444 kts | 300° |
| 2026-04-30 18:46 | 51.34465 | 10.04292 | 38430 ft | 444 kts | 300° |
| 2026-04-30 18:46 | 51.37150 | 9.95388 | 38421 ft | 445 kts | 300° |
| 2026-04-30 18:47 | 51.39839 | 9.86462 | 38416 ft | 444 kts | 300° |
| 2026-04-30 18:47 | 51.42519 | 9.77536 | 38420 ft | 444 kts | 300° |
| 2026-04-30 18:48 | 51.45184 | 9.68625 | 38403 ft | 445 kts | 300° |
| 2026-04-30 18:48 | 51.47855 | 9.59658 | 38409 ft | 444 kts | 299° |
| 2026-04-30 18:49 | 51.50509 | 9.50715 | 38393 ft | 444 kts | 299° |
| 2026-04-30 18:49 | 51.53157 | 9.41758 | 38407 ft | 444 kts | 299° |
| 2026-04-30 18:50 | 51.55791 | 9.32812 | 38401 ft | 443 kts | 298° |
| 2026-04-30 18:50 | 51.58423 | 9.23842 | 38401 ft | 443 kts | 298° |
| 2026-04-30 18:51 | 51.61043 | 9.14883 | 38408 ft | 443 kts | 298° |
| 2026-04-30 18:51 | 51.63658 | 9.05902 | 38395 ft | 443 kts | 298° |
| 2026-04-30 18:52 | 51.66264 | 8.96921 | 38394 ft | 443 kts | 298° |
| 2026-04-30 18:52 | 51.68867 | 8.87917 | 38384 ft | 443 kts | 298° |
| 2026-04-30 18:53 | 51.71445 | 8.78963 | 38373 ft | 444 kts | 297° |
| 2026-04-30 18:53 | 51.74038 | 8.69923 | 38377 ft | 444 kts | 297° |
| 2026-04-30 18:54 | 51.76625 | 8.60872 | 38378 ft | 444 kts | 297° |
| 2026-04-30 18:54 | 51.79197 | 8.51835 | 38381 ft | 445 kts | 297° |
| 2026-04-30 18:55 | 51.81786 | 8.42708 | 38265 ft | 448 kts | 297° |
| 2026-04-30 18:55 | 51.84393 | 8.33481 | 37430 ft | 451 kts | 297° |
| 2026-04-30 18:55 | 51.85690 | 8.28875 | 37017 ft | 448 kts | 297° |
| 2026-04-30 18:56 | 51.88254 | 8.19737 | 36192 ft | 446 kts | 296° |
| 2026-04-30 18:56 | 51.89536 | 8.15160 | 35785 ft | 446 kts | 296° |
| 2026-04-30 18:56 | 51.90816 | 8.10581 | 35385 ft | 447 kts | 296° |
| 2026-04-30 18:57 | 51.93375 | 8.01399 | 34604 ft | 447 kts | 296° |
| 2026-04-30 18:57 | 51.94651 | 7.96806 | 34195 ft | 448 kts | 296° |
| 2026-04-30 18:57 | 51.95931 | 7.92188 | 33767 ft | 449 kts | 296° |
| 2026-04-30 18:58 | 51.98491 | 7.82928 | 32916 ft | 451 kts | 296° |
| 2026-04-30 18:58 | 51.99772 | 7.78281 | 32520 ft | 452 kts | 296° |
| 2026-04-30 18:58 | 52.01055 | 7.73615 | 32140 ft | 453 kts | 296° |
| 2026-04-30 18:59 | 52.03628 | 7.64232 | 31392 ft | 457 kts | 295° |
| 2026-04-30 19:00 | 52.07512 | 7.49997 | 30266 ft | 462 kts | 295° |
| 2026-04-30 19:00 | 52.08810 | 7.45217 | 29841 ft | 463 kts | 295° |
| 2026-04-30 19:00 | 52.11403 | 7.35647 | 29014 ft | 467 kts | 295° |
| 2026-04-30 19:01 | 52.14021 | 7.25938 | 28206 ft | 470 kts | 295° |
| 2026-04-30 19:01 | 52.15337 | 7.21045 | 27815 ft | 472 kts | 295° |
| 2026-04-30 19:02 | 52.17972 | 7.11210 | 26950 ft | 477 kts | 294° |
| 2026-04-30 19:02 | 52.20634 | 7.01239 | 26374 ft | 481 kts | 294° |
| 2026-04-30 19:03 | 52.24162 | 6.92096 | 26371 ft | 477 kts | 311° |
| 2026-04-30 19:03 | 52.28094 | 6.83378 | 26224 ft | 480 kts | 298° |
| 2026-04-30 19:04 | 52.30377 | 6.73155 | 25292 ft | 476 kts | 286° |
| 2026-04-30 19:04 | 52.32191 | 6.62888 | 24239 ft | 466 kts | 286° |
| 2026-04-30 19:05 | 52.34019 | 6.52769 | 23041 ft | 462 kts | 287° |
| 2026-04-30 19:05 | 52.35845 | 6.42757 | 21834 ft | 457 kts | 287° |
| 2026-04-30 19:06 | 52.37654 | 6.32816 | 20676 ft | 453 kts | 287° |
| 2026-04-30 19:06 | 52.38546 | 6.27889 | 20092 ft | 452 kts | 286° |
| 2026-04-30 19:06 | 52.40295 | 6.18187 | 18656 ft | 438 kts | 286° |
| 2026-04-30 19:07 | 52.42001 | 6.08671 | 16962 ft | 432 kts | 286° |
| 2026-04-30 19:07 | 52.42838 | 6.03982 | 16167 ft | 425 kts | 286° |
| 2026-04-30 19:08 | 52.44461 | 5.94858 | 14642 ft | 408 kts | 285° |
| 2026-04-30 19:08 | 52.46008 | 5.86116 | 13202 ft | 391 kts | 285° |
| 2026-04-30 19:08 | 52.46754 | 5.81888 | 12575 ft | 381 kts | 285° |
| 2026-04-30 19:09 | 52.48189 | 5.73721 | 11464 ft | 363 kts | 285° |
| 2026-04-30 19:09 | 52.48877 | 5.69798 | 10977 ft | 354 kts | 285° |
| 2026-04-30 19:09 | 52.49547 | 5.65964 | 10493 ft | 346 kts | 285° |
| 2026-04-30 19:10 | 52.50780 | 5.58560 | 9471 ft | 331 kts | 276° |
| 2026-04-30 19:10 | 52.50031 | 5.51376 | 8462 ft | 313 kts | 247° |
| 2026-04-30 19:11 | 52.49305 | 5.48044 | 7963 ft | 308 kts | 246° |
| 2026-04-30 19:11 | 52.47868 | 5.41590 | 7394 ft | 295 kts | 246° |
| 2026-04-30 19:11 | 52.47168 | 5.38417 | 7355 ft | 290 kts | 246° |
| 2026-04-30 19:12 | 52.46499 | 5.35372 | 7341 ft | 286 kts | 246° |
| 2026-04-30 19:12 | 52.45820 | 5.32280 | 7357 ft | 289 kts | 246° |
| 2026-04-30 19:12 | 52.45126 | 5.29111 | 7356 ft | 293 kts | 246° |
| 2026-04-30 19:13 | 52.43759 | 5.22846 | 7332 ft | 290 kts | 246° |
| 2026-04-30 19:13 | 52.42404 | 5.16642 | 7333 ft | 288 kts | 246° |
| 2026-04-30 19:13 | 52.41728 | 5.13550 | 7339 ft | 288 kts | 246° |
| 2026-04-30 19:14 | 52.41061 | 5.10505 | 7330 ft | 288 kts | 246° |
| 2026-04-30 19:14 | 52.40382 | 5.07412 | 7331 ft | 289 kts | 246° |
| 2026-04-30 19:14 | 52.39699 | 5.04306 | 7320 ft | 290 kts | 246° |
| 2026-04-30 19:14 | 52.39015 | 5.01194 | 7324 ft | 291 kts | 246° |
| 2026-04-30 19:15 | 52.38329 | 4.98079 | 7329 ft | 292 kts | 246° |
| 2026-04-30 19:15 | 52.37103 | 4.91735 | 7329 ft | 296 kts | 257° |
| 2026-04-30 19:15 | 52.36778 | 4.88415 | 7326 ft | 296 kts | 257° |
| 2026-04-30 19:16 | 52.36457 | 4.85082 | 7316 ft | 296 kts | 257° |
| 2026-04-30 19:16 | 52.36141 | 4.81744 | 7316 ft | 296 kts | 257° |
| 2026-04-30 19:16 | 52.35509 | 4.75095 | 7316 ft | 295 kts | 257° |
| 2026-04-30 19:17 | 52.35196 | 4.71782 | 7327 ft | 295 kts | 257° |
| 2026-04-30 19:17 | 52.34561 | 4.65082 | 6799 ft | 304 kts | 257° |
| 2026-04-30 19:17 | 52.34238 | 4.61681 | 6311 ft | 302 kts | 257° |
| 2026-04-30 19:18 | 52.33814 | 4.57150 | 5632 ft | 299 kts | 257° |
| 2026-04-30 19:18 | 52.32966 | 4.51811 | 4850 ft | 285 kts | 239° |
| 2026-04-30 19:18 | 52.32093 | 4.48943 | 4414 ft | 279 kts | 238° |
| 2026-04-30 19:19 | 52.31214 | 4.46136 | 3992 ft | 275 kts | 237° |
| 2026-04-30 19:19 | 52.30345 | 4.43374 | 3568 ft | 271 kts | 237° |
| 2026-04-30 19:19 | 52.28669 | 4.37990 | 2995 ft | 254 kts | 237° |
| 2026-04-30 19:20 | 52.27913 | 4.35472 | 2978 ft | 241 kts | 237° |
| 2026-04-30 19:20 | 52.27180 | 4.33018 | 2984 ft | 240 kts | 237° |
| 2026-04-30 19:20 | 52.25285 | 4.29206 | 2759 ft | 199 kts | 191° |
| 2026-04-30 19:21 | 52.23980 | 4.29101 | 2381 ft | 184 kts | 159° |
| 2026-04-30 19:21 | 52.22430 | 4.31763 | 2009 ft | 161 kts | 99° |
| 2026-04-30 19:22 | 52.22491 | 4.35325 | 2004 ft | 156 kts | 92° |
| 2026-04-30 19:22 | 52.22634 | 4.40681 | 1990 ft | 158 kts | 92° |
| 2026-04-30 19:23 | 52.22776 | 4.45992 | 1985 ft | 155 kts | 92° |
| 2026-04-30 19:24 | 52.22871 | 4.49535 | 1995 ft | 157 kts | 92° |
| 2026-04-30 19:24 | 52.22917 | 4.51327 | 2000 ft | 159 kts | 92° |
| 2026-04-30 19:24 | 52.23005 | 4.54959 | 1993 ft | 161 kts | 92° |
| 2026-04-30 19:25 | 52.23582 | 4.59650 | 1986 ft | 166 kts | 65° |
| 2026-04-30 19:26 | 52.24687 | 4.62643 | 1595 ft | 137 kts | 67° |
| 2026-04-30 19:26 | 52.25632 | 4.65138 | 1252 ft | 123 kts | 68° |
| 2026-04-30 19:26 | 52.26080 | 4.66314 | 1085 ft | 122 kts | 67° |
| 2026-04-30 19:27 | 52.26972 | 4.68660 | 757 ft | 128 kts | 63° |
| 2026-04-30 19:27 | 52.27914 | 4.71117 | 400 ft | 131 kts | 62° |
| 2026-04-30 19:28 | 52.28388 | 4.72355 | 242 ft | 128 kts | 62° |
| 2026-04-30 19:28 | 52.29310 | 4.74767 | 0 ft | 108 kts | 61° |
| 2026-04-30 19:29 | 52.29819 | 4.75830 | -4 ft | 28 kts | 27° |
| 2026-04-30 19:29 | 52.29943 | 4.75941 | -6 ft | 14 kts | 30° |
| 2026-04-30 19:30 | 52.30101 | 4.76267 | -4 ft | 12 kts | 57° |
| 2026-04-30 19:30 | 52.30187 | 4.76490 | -4 ft | 12 kts | 62° |
| 2026-04-30 19:31 | 52.30310 | 4.76814 | -6 ft | 22 kts | 58° |
| 2026-04-30 19:31 | 52.30395 | 4.77018 | -8 ft | 22 kts | 34° |
| 2026-04-30 19:31 | 52.30540 | 4.76936 | -6 ft | 10 kts | 328° |
| 2026-04-30 19:32 | 52.30598 | 4.76873 | -5 ft | 10 kts | 317° |
| 2026-04-30 19:32 | 52.30636 | 4.76778 | -6 ft | 10 kts | 308° |
| 2026-04-30 19:32 | 52.30688 | 4.76713 | -5 ft | 7 kts | 305° |
| 2026-04-30 19:32 | 52.30687 | 4.76654 | -4 ft | 5 kts | 248° |
| 2026-04-30 19:33 | 52.30673 | 4.76594 | -4 ft | 0 kts | 247° |